Portada
METAR-TAF:

METAR-TAF

Aeropuertos :

Resistencia, Argentina

Aeropuerto Internacional de Resistencia

latitud: 27-27S, longitud: 059-03W, altitud: 53 m

Observación

El informe se hizo hace 1 hora y 1 minutos, a las 14:00 UTC
Viento 16 kt del norte-noreste
Temperatura 25°C
Humedad 41%
Presión 1016 hPa
Visibilidad: 6000 m

METAR: SARE 281400Z 03016KT 6000 NSC 25/11 Q1016

Hora: 12:01 (15:01 UTC)

Pronóstico

El informe se hizo hace 4 horas y 1 minutos, a las 11:00 UTC
Pronóstico válido del 28 a las 12 UTC al 29 a las 12 UTC
Viento 10 kt del noreste
Visibilidad: 8000 m

TAF: SARE 281100Z 2812/2912 05010KT 8000 NSC TX32/2818Z TN17/2909Z

Observaciones y pronósticos meteorológicos de más de 4000 aeropuertos (mensajes METAR y TAF).

Los puntos amarillos y rojos representan las estaciones disponibles.

Ponga el ratón en el punto deseado para ver el nombre de la estación.

Haga clic para ver las observaciones y los pronósticos meteorológicos.

Para cambiar el mapa : haga clic en los botones verdes con una cruz de color negro para hacer un zoom, en el botón verde con un guión para alejar o en las flechas verdes para mapas adyacentes.


METAR-TAF: